Weather at California Redwood Coast-Humboldt County Airport

Public forecast

Using degrees Fahrenheit for public forecast. Weather courtesy of forecast.io.

Current aviation weather report (METAR) for California Redwood Coast-Humboldt County Airport

Retrieved 2021/03/06 16:14 UTC (9 minutes ago):

KACV 061614Z AUTO 12004KT 10SM SCT027 06/05 A3018 RMK AO2 T00560050

Aviation forecast (TAF) for California Redwood Coast-Humboldt County Airport

Retrieved 2021/03/06 12:42 UTC (4 hours ago):

TAF KACV 061140Z 0612/0712 14003KT P6SM BKN015 OVC040 FM061500 15004KT P6SM SCT025 BKN050 FM062000 24008KT P6SM SCT070 BKN250 FM070120 14006KT P6SM BKN070 FM071100 14004KT P6SM -RA SCT030 OVC050